Time;durP1;ratioP1;P1;durP2;ratioP2;P2;SDS_P1;SDS_P2;PMS_P1;PMS_P2;Temp;Humidity;BMP_temperature;BMP_pressure;BME280_temperature;BME280_humidity;BME280_pressure;Samples;Min_cycle;Max_cycle;Signal;HPM_P1;HPM_P2
2023/09/08 00:00:57;;;;;;;9.20;6.53;;;15.10;99.90;;;;;;5055703;28;20029;-88
2023/09/08 00:03:23;;;;;;;10.65;6.80;;;15.10;99.90;;;;;;5039071;28;20028;-89
2023/09/08 00:09:12;;;;;;;9.32;6.65;;;15.10;99.90;;;;;;5055476;28;20029;-87
2023/09/08 00:11:37;;;;;;;13.50;6.28;;;15.10;99.90;;;;;;5055651;28;20488;-88
2023/09/08 00:14:03;;;;;;;10.43;6.50;;;15.10;99.90;;;;;;5055816;28;20456;-88
2023/09/08 00:16:30;;;;;;;10.75;6.70;;;15.20;99.90;;;;;;5055853;28;20123;-88
2023/09/08 00:18:58;;;;;;;10.45;5.65;;;15.30;99.90;;;;;;5055847;28;20112;-86
2023/09/08 00:21:24;;;;;;;9.15;6.35;;;15.30;99.90;;;;;;5038973;28;20035;-86
2023/09/08 00:23:51;;;;;;;10.07;6.80;;;15.40;99.90;;;;;;5039150;28;20634;-86
2023/09/08 00:26:16;;;;;;;8.23;6.07;;;15.40;99.90;;;;;;5038996;28;20037;-85
2023/09/08 00:28:43;;;;;;;10.13;6.93;;;15.50;99.90;;;;;;5055012;28;20801;-85
2023/09/08 00:31:08;;;;;;;12.18;7.18;;;15.50;99.90;;;;;;5055063;28;20033;-85
2023/09/08 00:33:34;;;;;;;12.48;7.00;;;15.50;99.90;;;;;;5055323;28;20498;-86
2023/09/08 00:36:00;;;;;;;10.75;7.00;;;15.50;99.90;;;;;;5055186;28;20499;-85
2023/09/08 00:38:51;;;;;;;8.75;6.00;;;15.50;99.90;;;;;;5055761;28;20028;-86
2023/09/08 00:41:16;;;;;;;9.50;6.50;;;15.50;99.90;;;;;;5055725;28;20037;-86
2023/09/08 00:43:42;;;;;;;14.10;7.32;;;15.50;99.90;;;;;;5056190;28;20119;-86
2023/09/08 00:46:09;;;;;;;11.35;6.70;;;15.50;99.90;;;;;;5055390;28;20036;-86
2023/09/08 00:48:35;;;;;;;11.85;7.25;;;15.40;99.90;;;;;;5039131;28;20033;-86
2023/09/08 00:51:01;;;;;;;12.30;6.95;;;15.40;99.90;;;;;;5038976;28;20024;-86
2023/09/08 00:53:33;;;;;;;10.88;6.75;;;15.30;99.90;;;;;;5073238;28;20442;-86
2023/09/08 00:55:59;;;;;;;11.25;6.30;;;15.30;99.90;;;;;;5042768;28;20024;-85
2023/09/08 00:58:25;;;;;;;9.27;7.25;;;15.30;99.90;;;;;;5077458;28;20083;-86
2023/09/08 01:00:51;;;;;;;9.65;7.32;;;15.30;99.90;;;;;;5059000;28;20033;-86
2023/09/08 01:03:17;;;;;;;10.68;6.90;;;15.30;99.90;;;;;;5058893;28;20091;-86
2023/09/08 01:05:45;;;;;;;16.02;8.50;;;15.30;99.90;;;;;;5058757;28;20075;-86
2023/09/08 01:08:10;;;;;;;12.57;7.88;;;15.30;99.90;;;;;;5041850;28;20028;-86
2023/09/08 01:10:37;;;;;;;10.45;8.07;;;15.30;99.90;;;;;;5058683;28;20210;-86
2023/09/08 01:13:03;;;;;;;13.27;8.73;;;15.30;99.90;;;;;;5058867;28;20032;-86
2023/09/08 01:15:28;;;;;;;9.65;7.95;;;15.30;99.90;;;;;;5042153;28;20031;-86
2023/09/08 01:17:54;;;;;;;14.70;8.23;;;15.30;99.90;;;;;;5058785;28;20476;-86
2023/09/08 01:20:29;;;;;;;13.82;8.77;;;15.20;99.90;;;;;;5058501;28;20029;-87
2023/09/08 01:23:12;;;;;;;10.90;8.50;;;15.20;99.90;;;;;;5058157;28;20171;-86
2023/09/08 01:25:54;;;;;;;15.88;8.43;;;15.50;99.90;;;;;;5058516;28;20043;-86
2023/09/08 01:28:21;;;;;;;10.90;8.55;;;15.50;99.90;;;;;;5058971;28;20043;-86
2023/09/08 01:30:48;;;;;;;11.30;8.45;;;15.60;99.90;;;;;;5058566;28;20686;-86
2023/09/08 01:33:14;;;;;;;17.88;8.57;;;15.70;99.90;;;;;;5058152;28;20099;-86
2023/09/08 01:35:40;;;;;;;13.23;8.05;;;16.00;99.90;;;;;;5041282;28;20166;-86
2023/09/08 01:38:05;;;;;;;15.73;7.40;;;16.10;99.90;;;;;;5058476;28;20032;-85
2023/09/08 01:40:31;;;;;;;11.65;7.97;;;16.30;99.90;;;;;;5058635;28;20123;-85
2023/09/08 01:42:57;;;;;;;12.23;7.95;;;16.40;99.90;;;;;;5057967;28;20036;-85
2023/09/08 01:45:22;;;;;;;10.63;7.88;;;16.50;99.90;;;;;;5057746;28;20036;-85
2023/09/08 01:47:48;;;;;;;12.73;8.25;;;16.60;99.90;;;;;;5057932;28;20450;-86
2023/09/08 01:50:15;;;;;;;9.68;7.43;;;16.70;99.90;;;;;;5058087;28;20030;-86
2023/09/08 01:52:40;;;;;;;10.35;7.05;;;16.70;99.90;;;;;;5058082;28;20056;-86
2023/09/08 01:55:07;;;;;;;11.68;8.00;;;16.70;99.90;;;;;;5058028;28;20063;-85
2023/09/08 01:57:33;;;;;;;10.43;7.13;;;16.60;99.90;;;;;;5057778;28;20352;-86
2023/09/08 01:59:58;;;;;;;12.55;7.63;;;16.60;99.90;;;;;;5057895;28;20030;-86
2023/09/08 02:02:24;;;;;;;15.18;7.82;;;16.60;99.90;;;;;;5058025;28;20446;-86
2023/09/08 02:04:50;;;;;;;15.98;7.78;;;16.60;99.90;;;;;;5057987;28;20034;-86
2023/09/08 02:07:16;;;;;;;12.35;7.90;;;16.50;99.90;;;;;;5057562;28;20666;-86
2023/09/08 02:09:42;;;;;;;10.18;8.02;;;16.50;99.90;;;;;;5057685;28;20032;-86
2023/09/08 02:12:07;;;;;;;12.85;7.95;;;16.50;99.90;;;;;;5057442;28;20434;-86
2023/09/08 02:14:33;;;;;;;11.43;7.75;;;16.50;99.90;;;;;;5057615;28;20525;-87
2023/09/08 02:17:24;;;;;;;11.88;7.50;;;16.50;99.90;;;;;;5057014;28;20467;-85
2023/09/08 02:19:50;;;;;;;14.82;7.82;;;16.40;99.90;;;;;;5056835;28;20024;-86
2023/09/08 02:22:15;;;;;;;13.73;7.82;;;16.40;99.90;;;;;;5056969;28;20507;-85
2023/09/08 02:24:41;;;;;;;14.38;8.07;;;16.40;99.90;;;;;;5057123;28;20044;-87
2023/09/08 02:27:07;;;;;;;12.05;7.25;;;16.30;99.90;;;;;;5057556;28;20491;-86
2023/09/08 02:29:32;;;;;;;16.00;7.68;;;16.30;99.90;;;;;;5057511;28;20031;-85
2023/09/08 02:31:58;;;;;;;21.27;7.47;;;16.20;99.90;;;;;;5057064;28;20032;-86
2023/09/08 02:34:24;;;;;;;11.70;8.60;;;16.10;99.90;;;;;;5056633;28;20025;-86
2023/09/08 02:36:50;;;;;;;10.95;7.97;;;16.10;99.90;;;;;;5057156;28;20035;-86
2023/09/08 02:39:18;;;;;;;13.07;7.70;;;16.20;99.90;;;;;;5057025;28;20031;-86
2023/09/08 02:41:44;;;;;;;10.77;8.20;;;16.20;99.90;;;;;;5057897;28;20025;-86
2023/09/08 02:44:10;;;;;;;10.55;8.07;;;16.10;99.90;;;;;;5056896;28;20112;-86
2023/09/08 02:46:35;;;;;;;13.88;8.63;;;16.10;99.90;;;;;;5056777;28;20084;-86
2023/09/08 02:49:01;;;;;;;16.27;9.10;;;16.10;99.90;;;;;;5057019;28;20471;-86
2023/09/08 02:51:28;;;;;;;12.30;7.93;;;16.10;99.90;;;;;;5056641;28;20396;-86
2023/09/08 02:53:53;;;;;;;18.00;8.80;;;16.10;99.90;;;;;;5056608;28;20016;-87
2023/09/08 02:56:19;;;;;;;11.95;8.23;;;16.00;99.90;;;;;;5056516;28;20032;-86
2023/09/08 02:58:45;;;;;;;14.98;9.50;;;15.90;99.90;;;;;;5056627;28;20020;-88
2023/09/08 03:01:13;;;;;;;12.70;8.73;;;16.00;99.90;;;;;;5056613;28;20032;-86
2023/09/08 03:03:39;;;;;;;12.00;8.93;;;15.90;99.90;;;;;;5056519;28;20028;-86
2023/09/08 03:06:05;;;;;;;21.40;10.02;;;15.80;99.90;;;;;;5039738;28;20031;-86
2023/09/08 03:08:31;;;;;;;12.40;9.20;;;15.80;99.90;;;;;;5056967;28;20028;-86
2023/09/08 03:11:00;;;;;;;14.98;8.93;;;15.70;99.90;;;;;;5056463;28;20036;-86
2023/09/08 03:13:26;;;;;;;14.77;9.55;;;15.60;99.90;;;;;;5056241;28;20033;-86
2023/09/08 03:15:52;;;;;;;18.00;10.80;;;15.50;99.90;;;;;;5056069;28;20115;-86
2023/09/08 03:18:18;;;;;;;14.43;9.52;;;15.40;99.90;;;;;;5055979;28;20029;-86
2023/09/08 03:20:51;;;;;;;12.60;8.82;;;15.30;99.90;;;;;;5056737;28;20029;-86
2023/09/08 03:23:16;;;;;;;16.95;9.32;;;15.20;99.90;;;;;;5056363;28;20087;-86
2023/09/08 03:25:44;;;;;;;13.52;9.63;;;15.10;99.90;;;;;;5056306;28;20032;-86
2023/09/08 03:28:09;;;;;;;11.13;8.88;;;15.00;99.90;;;;;;5056255;28;20070;-86
2023/09/08 03:30:35;;;;;;;16.63;9.98;;;15.00;99.90;;;;;;5055929;28;20040;-86
2023/09/08 03:33:01;;;;;;;14.32;9.65;;;15.10;99.90;;;;;;5055861;28;20435;-86
2023/09/08 03:35:55;;;;;;;14.40;9.43;;;15.10;99.90;;;;;;5056000;28;20104;-86
2023/09/08 03:38:22;;;;;;;14.27;9.98;;;15.10;99.90;;;;;;5039690;28;20025;-86
2023/09/08 03:40:47;;;;;;;14.20;10.18;;;15.00;99.90;;;;;;5039395;28;20056;-87
2023/09/08 03:43:13;;;;;;;12.75;10.10;;;14.90;99.90;;;;;;5056021;28;20033;-87
2023/09/08 03:45:39;;;;;;;18.90;10.55;;;14.80;99.90;;;;;;5072249;28;20071;-87
2023/09/08 03:48:05;;;;;;;15.02;10.18;;;14.60;99.90;;;;;;5055456;28;20074;-87
2023/09/08 03:50:31;;;;;;;17.27;10.27;;;14.60;99.90;;;;;;5072396;28;20039;-87
2023/09/08 03:52:57;;;;;;;16.67;9.80;;;14.50;99.90;;;;;;5072430;28;20037;-87
2023/09/08 03:55:23;;;;;;;14.82;10.82;;;14.40;99.90;;;;;;5055793;28;20032;-86
2023/09/08 03:57:49;;;;;;;14.77;11.13;;;14.30;99.90;;;;;;5055153;28;20024;-87
2023/09/08 04:00:24;;;;;;;13.57;10.35;;;14.20;99.90;;;;;;5055089;28;20122;-87
2023/09/08 04:02:49;;;;;;;14.15;10.45;;;14.10;99.90;;;;;;5071792;28;20043;-87
2023/09/08 04:05:18;;;;;;;21.15;10.77;;;14.00;99.90;;;;;;5055043;28;20028;-87
2023/09/08 04:07:45;;;;;;;12.10;10.50;;;14.00;99.90;;;;;;5055514;28;20031;-87
2023/09/08 04:10:11;;;;;;;14.20;10.35;;;14.00;99.90;;;;;;5054834;28;20489;-87
2023/09/08 04:12:39;;;;;;;18.45;10.52;;;14.00;99.90;;;;;;5055083;28;20063;-86
2023/09/08 04:15:05;;;;;;;15.77;10.00;;;14.10;99.90;;;;;;5072131;28;20460;-87
2023/09/08 04:17:31;;;;;;;13.52;10.50;;;14.10;99.90;;;;;;5072165;28;20035;-87
2023/09/08 04:19:57;;;;;;;15.45;9.30;;;14.10;99.90;;;;;;5055237;28;20111;-87
2023/09/08 04:22:24;;;;;;;14.77;10.57;;;14.10;99.90;;;;;;5055758;28;20032;-87
2023/09/08 04:24:50;;;;;;;13.65;10.18;;;14.10;99.90;;;;;;5055539;28;20541;-87
2023/09/08 04:27:15;;;;;;;16.77;10.55;;;14.00;99.90;;;;;;5055628;28;20391;-87
2023/09/08 04:30:24;;;;;;;12.00;9.60;;;13.90;99.90;;;;;;5058451;28;20407;-87
2023/09/08 04:32:49;;;;;;;13.68;10.18;;;13.90;99.90;;;;;;5076975;28;20045;-88
2023/09/08 04:35:15;;;;;;;13.70;10.63;;;14.00;99.90;;;;;;5059907;28;20083;-88
2023/09/08 04:37:50;;;;;;;16.08;11.27;;;14.00;99.90;;;;;;5059650;28;20123;-87
2023/09/08 04:40:16;;;;;;;15.63;10.38;;;14.00;99.90;;;;;;5076686;28;20047;-87
2023/09/08 04:42:42;;;;;;;16.63;11.43;;;14.00;99.90;;;;;;5076413;28;20029;-87
2023/09/08 04:45:09;;;;;;;13.63;10.85;;;13.90;99.90;;;;;;5059088;28;20033;-85
2023/09/08 04:47:37;;;;;;;14.05;10.38;;;14.00;99.90;;;;;;5059790;28;20082;-87
2023/09/08 04:50:03;;;;;;;12.43;9.65;;;13.90;99.90;;;;;;5059682;28;20047;-87
2023/09/08 04:52:29;;;;;;;13.75;10.00;;;13.90;99.90;;;;;;5044754;28;20090;-89
2023/09/08 04:54:55;;;;;;;15.25;10.70;;;13.90;99.90;;;;;;5078327;28;20028;-89
2023/09/08 04:57:21;;;;;;;15.00;10.25;;;13.90;99.90;;;;;;5061833;28;20031;-88
2023/09/08 04:59:48;;;;;;;17.55;11.25;;;13.80;99.90;;;;;;5061903;28;20491;-90
2023/09/08 05:02:14;;;;;;;19.42;9.98;;;13.80;99.90;;;;;;5060745;28;20032;-90
2023/09/08 05:04:40;;;;;;;14.02;10.07;;;13.80;99.90;;;;;;5060571;28;20105;-90
2023/09/08 05:07:06;;;;;;;19.23;10.35;;;13.70;99.90;;;;;;5061671;28;20025;-90
2023/09/08 05:09:33;;;;;;;16.08;10.55;;;13.70;99.90;;;;;;5061209;28;20029;-90
2023/09/08 05:12:00;;;;;;;13.88;10.40;;;13.70;99.90;;;;;;5061470;28;20119;-90
2023/09/08 05:14:26;;;;;;;15.43;10.05;;;13.70;99.90;;;;;;5061357;28;20035;-90
2023/09/08 05:16:55;;;;;;;13.77;10.10;;;13.70;99.90;;;;;;5061449;28;20044;-90
2023/09/08 05:19:23;;;;;;;;;;;13.70;99.90;;;;;;5061789;28;20522;-89
2023/09/08 05:21:51;;;;;;;13.07;9.27;;;13.60;99.90;;;;;;5061199;28;19908;-90
2023/09/08 05:24:18;;;;;;;18.25;10.15;;;13.60;99.90;;;;;;5077952;28;20365;-90
2023/09/08 05:26:43;;;;;;;14.88;10.35;;;13.60;99.90;;;;;;5060800;28;20050;-90
2023/09/08 05:29:09;;;;;;;14.02;10.50;;;13.70;99.90;;;;;;5077377;28;20035;-89
2023/09/08 05:31:35;;;;;;;14.32;11.07;;;13.70;99.90;;;;;;5060469;28;20024;-89
2023/09/08 05:34:03;;;;;;;14.90;9.75;;;13.80;99.90;;;;;;5061552;28;20476;-90
2023/09/08 05:36:29;;;;;;;12.90;10.02;;;13.80;99.90;;;;;;5062127;28;20050;-90
2023/09/08 05:38:56;;;;;;;13.40;9.38;;;13.80;99.90;;;;;;5061036;28;20123;-91
2023/09/08 05:41:23;;;;;;;14.90;10.20;;;14.00;99.90;;;;;;5060702;28;20024;-90
2023/09/08 05:43:49;;;;;;;12.50;9.98;;;14.10;99.90;;;;;;5076723;28;20021;-90
2023/09/08 05:46:17;;;;;;;15.63;9.50;;;14.10;99.90;;;;;;5060574;28;20032;-90
2023/09/08 05:48:43;;;;;;;13.25;9.90;;;14.20;99.90;;;;;;5077969;28;20028;-91
2023/09/08 05:51:09;;;;;;;13.05;9.77;;;14.20;99.90;;;;;;5061042;28;20021;-90
2023/09/08 05:53:39;;;;;;;13.82;9.60;;;14.30;99.90;;;;;;5062259;28;20028;-90
2023/09/08 05:56:06;;;;;;;11.77;9.07;;;14.40;99.90;;;;;;5062343;28;20028;-90
2023/09/08 05:58:33;;;;;;;12.32;8.95;;;14.50;99.90;;;;;;5045445;28;20028;-90
2023/09/08 06:01:02;;;;;;;11.68;8.55;;;14.60;99.90;;;;;;5060458;28;20107;-90
2023/09/08 06:03:28;;;;;;;12.07;8.02;;;14.80;99.90;;;;;;5060810;28;20032;-90
2023/09/08 06:05:55;;;;;;;13.68;8.90;;;15.00;99.90;;;;;;5059703;28;20036;-90
2023/09/08 06:08:20;;;;;;;12.48;8.77;;;15.10;99.90;;;;;;5043463;28;20115;-89
2023/09/08 06:10:46;;;;;;;14.80;8.77;;;15.20;99.90;;;;;;5043927;28;20055;-90
2023/09/08 06:13:12;;;;;;;12.63;9.23;;;15.20;99.90;;;;;;5060750;28;20036;-90
2023/09/08 06:15:40;;;;;;;11.40;7.68;;;15.40;99.90;;;;;;5060603;28;20453;-89
2023/09/08 06:18:06;;;;;;;12.25;8.02;;;15.50;99.90;;;;;;5059927;28;20032;-90
2023/09/08 06:20:32;;;;;;;13.88;8.35;;;15.60;99.90;;;;;;5060321;28;20024;-90
2023/09/08 06:22:58;;;;;;;10.00;8.05;;;15.80;99.90;;;;;;5060929;28;20025;-88
2023/09/08 06:25:24;;;;;;;12.43;8.05;;;15.90;99.90;;;;;;5060552;28;20105;-89
2023/09/08 06:27:50;;;;;;;11.05;7.60;;;16.00;99.90;;;;;;5059873;28;20031;-89
2023/09/08 06:30:18;;;;;;;12.38;7.80;;;16.10;99.90;;;;;;5060140;28;20043;-89
2023/09/08 06:32:44;;;;;;;10.13;7.80;;;16.30;99.90;;;;;;5043138;28;20131;-89
2023/09/08 06:35:10;;;;;;;9.45;7.43;;;16.40;99.90;;;;;;5059676;28;20056;-89
2023/09/08 06:41:23;;;;;;;13.15;7.75;;;16.50;99.90;;;;;;5078299;28;20388;-89
2023/09/08 06:43:50;;;;;;;15.93;8.07;;;16.60;99.90;;;;;;5060048;28;20029;-89
2023/09/08 06:46:21;;;;;;;12.27;7.30;;;16.70;99.90;;;;;;5060285;28;20032;-90
2023/09/08 06:48:47;;;;;;;10.55;7.60;;;16.80;99.90;;;;;;5059869;28;20076;-90
2023/09/08 06:51:13;;;;;;;8.75;6.82;;;16.90;99.90;;;;;;5058487;28;20047;-89
2023/09/08 06:53:39;;;;;;;9.40;7.40;;;16.90;99.90;;;;;;5059734;28;20494;-91
2023/09/08 06:56:05;;;;;;;11.52;7.72;;;17.10;99.90;;;;;;5059565;28;20107;-90
2023/09/08 06:58:32;;;;;;;9.55;7.03;;;17.20;99.90;;;;;;5058710;28;20376;-89
2023/09/08 07:00:57;;;;;;;14.07;7.32;;;17.30;99.90;;;;;;5058608;28;20123;-90
2023/09/08 07:03:26;;;;;;;10.27;7.05;;;17.40;99.90;;;;;;5058453;28;20051;-89
2023/09/08 07:05:52;;;;;;;9.77;7.43;;;17.50;99.90;;;;;;5058713;28;20098;-90
2023/09/08 07:08:18;;;;;;;9.90;6.78;;;17.60;99.90;;;;;;5059334;28;20418;-89
2023/09/08 07:10:44;;;;;;;11.98;7.05;;;17.70;99.90;;;;;;5058903;28;20029;-90
2023/09/08 07:13:10;;;;;;;8.75;7.13;;;17.80;99.90;;;;;;5075645;28;20031;-90
2023/09/08 07:15:37;;;;;;;14.13;7.07;;;17.90;99.90;;;;;;5058566;28;20025;-90
2023/09/08 07:18:03;;;;;;;8.93;6.95;;;18.00;99.90;;;;;;5058802;28;20089;-89
2023/09/08 07:20:30;;;;;;;16.60;8.60;;;18.00;99.90;;;;;;5042221;28;20029;-89
2023/09/08 07:22:56;;;;;;;9.45;7.25;;;18.10;99.90;;;;;;5058466;28;20046;-90
2023/09/08 07:25:22;;;;;;;9.38;6.78;;;18.20;99.90;;;;;;5058471;28;20044;-90
2023/09/08 07:27:53;;;;;;;13.10;6.78;;;18.20;99.90;;;;;;5059570;28;20329;-90
2023/09/08 07:30:20;;;;;;;17.67;7.63;;;18.30;99.90;;;;;;5058556;28;20111;-89
2023/09/08 07:32:46;;;;;;;14.57;7.40;;;18.40;99.90;;;;;;5042430;28;20028;-90
2023/09/08 07:35:14;;;;;;;11.23;7.30;;;18.50;99.90;;;;;;5059016;28;20032;-90
2023/09/08 07:37:41;;;;;;;14.48;7.28;;;18.50;99.90;;;;;;5058639;28;20025;-90
2023/09/08 07:40:11;;;;;;;20.52;7.25;;;18.50;99.90;;;;;;5059424;28;20025;-90
2023/09/08 07:42:37;;;;;;;12.05;7.03;;;18.60;99.90;;;;;;5042392;28;20124;-90
2023/09/08 07:45:03;;;;;;;9.57;6.75;;;18.80;99.90;;;;;;5041508;28;20125;-89
2023/09/08 07:47:29;;;;;;;15.07;7.25;;;18.90;99.90;;;;;;5057907;28;20039;-89
2023/09/08 07:50:19;;;;;;;13.45;6.88;;;19.00;99.90;;;;;;5057709;28;20033;-89
2023/09/08 07:52:46;;;;;;;9.65;6.85;;;19.00;99.90;;;;;;5042071;28;20374;-87
2023/09/08 07:55:11;;;;;;;19.85;8.35;;;19.10;99.90;;;;;;5041396;28;20032;-90
2023/09/08 07:57:37;;;;;;;11.65;7.00;;;19.20;99.90;;;;;;5058007;28;20375;-90
2023/09/08 08:00:03;;;;;;;7.63;6.50;;;19.30;99.90;;;;;;5057890;28;20028;-89
2023/09/08 08:02:42;;;;;;;10.63;7.25;;;19.40;99.90;;;;;;5059482;28;20024;-89
2023/09/08 08:05:07;;;;;;;13.55;6.57;;;19.40;99.90;;;;;;5041591;28;20074;-89
2023/09/08 08:07:33;;;;;;;9.63;6.45;;;19.40;99.90;;;;;;5057929;28;20028;-90
2023/09/08 08:09:59;;;;;;;9.30;6.30;;;19.50;99.90;;;;;;5057979;28;20032;-89
2023/09/08 08:12:25;;;;;;;13.10;8.40;;;19.60;99.90;;;;;;5057375;28;20036;-89
2023/09/08 08:14:50;;;;;;;10.15;6.45;;;19.70;99.90;;;;;;5058251;28;20036;-88
2023/09/08 08:17:18;;;;;;;11.15;7.13;;;19.70;99.90;;;;;;5057457;28;20033;-89
2023/09/08 08:19:43;;;;;;;11.43;7.50;;;19.80;99.90;;;;;;5057997;28;20040;-88
2023/09/08 08:22:09;;;;;;;12.02;6.63;;;19.90;99.90;;;;;;5057747;28;20037;-87
2023/09/08 08:24:35;;;;;;;11.70;7.18;;;19.90;99.90;;;;;;5057522;28;20040;-89
2023/09/08 08:27:01;;;;;;;9.77;7.28;;;20.00;99.90;;;;;;5057556;28;20029;-89
2023/09/08 08:29:27;;;;;;;17.25;6.75;;;20.00;99.90;;;;;;5057306;28;20036;-89
2023/09/08 08:31:53;;;;;;;12.15;6.50;;;20.10;99.90;;;;;;5056883;28;20448;-89
2023/09/08 08:34:18;;;;;;;14.77;7.60;;;20.20;99.90;;;;;;5057372;28;20024;-89
2023/09/08 08:36:44;;;;;;;10.32;6.70;;;20.20;99.90;;;;;;5057573;28;20028;-89
2023/09/08 08:39:10;;;;;;;11.07;6.55;;;20.30;99.90;;;;;;5057017;28;20123;-89
2023/09/08 08:41:39;;;;;;;10.60;6.97;;;20.40;99.90;;;;;;5056678;28;20036;-87
2023/09/08 08:44:07;;;;;;;14.88;7.05;;;20.50;99.90;;;;;;5056473;28;20028;-88
2023/09/08 08:46:35;;;;;;;11.07;6.43;;;20.60;99.90;;;;;;5041314;28;20025;-88
2023/09/08 08:49:03;;;;;;;14.80;6.60;;;21.10;99.90;;;;;;5040916;28;20028;-89
2023/09/08 08:51:31;;;;;;;9.63;6.13;;;22.60;99.90;;;;;;5057109;28;20028;-89
2023/09/08 08:53:57;;;;;;;13.02;6.13;;;23.90;99.90;;;;;;5041145;28;20052;-88
2023/09/08 08:56:23;;;;;;;6.80;5.93;;;24.60;99.90;;;;;;5057008;28;20043;-89
2023/09/08 08:58:50;;;;;;;8.13;5.82;;;25.10;99.90;;;;;;5057518;28;20063;-89
2023/09/08 09:01:21;;;;;;;11.55;6.72;;;25.50;99.90;;;;;;5057194;28;20360;-89
2023/09/08 09:03:51;;;;;;;7.25;5.97;;;26.00;99.90;;;;;;5057761;28;20055;-89
2023/09/08 09:06:17;;;;;;;13.02;5.97;;;25.90;99.90;;;;;;5040173;28;20036;-88
2023/09/08 09:08:44;;;;;;;7.63;5.85;;;26.30;99.90;;;;;;5057763;28;20386;-89
2023/09/08 09:11:11;;;;;;;7.78;5.50;;;26.80;99.90;;;;;;5040834;28;20123;-89
2023/09/08 09:13:37;;;;;;;7.63;5.93;;;27.70;99.90;;;;;;5040756;28;20033;-90
2023/09/08 09:16:03;;;;;;;8.77;5.32;;;28.00;99.90;;;;;;5060719;28;20494;-88
2023/09/08 09:18:32;;;;;;;11.60;5.47;;;28.10;99.90;;;;;;5061319;28;20527;-89
2023/09/08 09:21:02;;;;;;;8.60;5.63;;;27.70;99.90;;;;;;5060895;28;20028;-88
2023/09/08 09:23:34;;;;;;;9.13;6.10;;;27.70;99.90;;;;;;5060641;28;20036;-89
2023/09/08 09:26:06;;;;;;;18.40;5.85;;;27.80;99.90;;;;;;5078102;28;20013;-90
2023/09/08 09:28:32;;;;;;;9.73;5.28;;;28.10;99.90;;;;;;5044413;28;20020;-89
2023/09/08 09:30:59;;;;;;;10.70;5.57;;;28.20;99.90;;;;;;5060880;28;20032;-90
2023/09/08 09:33:24;;;;;;;6.82;5.47;;;28.00;99.90;;;;;;5060697;28;20056;-88
2023/09/08 09:35:53;;;;;;;6.30;5.18;;;27.50;99.90;;;;;;5060420;28;20035;-89
2023/09/08 09:38:20;;;;;;;12.52;6.13;;;27.00;99.90;;;;;;5043843;28;20535;-89
2023/09/08 09:40:47;;;;;;;8.32;6.28;;;26.60;99.90;;;;;;5060880;28;20082;-89
2023/09/08 09:43:14;;;;;;;6.47;5.78;;;26.10;99.90;;;;;;5060553;28;20051;-89
2023/09/08 09:45:41;;;;;;;6.50;5.35;;;26.30;99.90;;;;;;5044047;28;20029;-89
2023/09/08 09:48:10;;;;;;;13.80;5.82;;;26.60;99.90;;;;;;5043718;28;20089;-88
2023/09/08 09:50:38;;;;;;;10.73;5.78;;;26.60;99.90;;;;;;5060638;28;20039;-90
2023/09/08 09:53:15;;;;;;;8.52;5.60;;;26.50;99.90;;;;;;5043171;28;20025;-89
2023/09/08 09:55:43;;;;;;;14.40;5.32;;;27.00;99.90;;;;;;5043089;28;20040;-89
2023/09/08 09:58:10;;;;;;;14.77;5.95;;;27.10;99.90;;;;;;5060227;28;20036;-90
2023/09/08 10:00:37;;;;;;;8.55;5.88;;;27.30;99.90;;;;;;5061551;28;20060;-90
2023/09/08 10:03:04;;;;;;;6.00;5.20;;;28.10;99.90;;;;;;5043683;28;20099;-89
2023/09/08 10:05:30;;;;;;;7.82;5.28;;;28.50;99.90;;;;;;5060097;28;20373;-89
2023/09/08 10:07:56;;;;;;;7.85;5.50;;;28.80;99.90;;;;;;5059623;28;20039;-89
2023/09/08 10:10:22;;;;;;;9.63;5.65;;;28.10;99.90;;;;;;5060108;28;20036;-90
2023/09/08 10:12:53;;;;;;;8.65;5.35;;;28.80;99.90;;;;;;5043448;28;20040;-90
2023/09/08 10:15:23;;;;;;;11.80;5.40;;;29.30;99.90;;;;;;5059806;28;20171;-90
2023/09/08 10:21:41;;;;;;;5.88;4.72;;;29.50;99.90;;;;;;5078212;28;20122;-90
2023/09/08 10:24:24;;;;;;;8.82;6.03;;;30.80;99.90;;;;;;5043640;28;20041;-91
2023/09/08 10:27:00;;;;;;;6.63;5.22;;;31.20;98.40;;;;;;5077193;28;20047;-90
2023/09/08 10:29:27;;;;;;;10.02;5.35;;;30.30;98.60;;;;;;5060435;28;20037;-89
2023/09/08 10:31:55;;;;;;;9.95;5.10;;;30.20;99.10;;;;;;5060079;28;20036;-89
2023/09/08 10:34:23;;;;;;;7.28;4.70;;;30.20;98.80;;;;;;5042757;28;20059;-90
2023/09/08 10:36:48;;;;;;;14.30;5.35;;;30.60;99.20;;;;;;5043149;28;20082;-90
2023/09/08 10:39:30;;;;;;;9.27;4.68;;;30.00;98.30;;;;;;5058884;28;20025;-90
2023/09/08 10:42:21;;;;;;;11.73;5.45;;;29.30;99.20;;;;;;5076281;28;20032;-89
2023/09/08 10:44:47;;;;;;;7.80;5.05;;;29.10;99.10;;;;;;5059057;28;20051;-89
2023/09/08 10:47:13;;;;;;;7.00;5.15;;;28.90;99.80;;;;;;5059528;28;20033;-89
2023/09/08 10:49:38;;;;;;;7.03;5.15;;;29.00;99.90;;;;;;5042258;28;20039;-90
2023/09/08 10:52:08;;;;;;;6.25;5.03;;;28.80;99.00;;;;;;5059109;28;20078;-90
2023/09/08 10:54:44;;;;;;;9.03;5.13;;;29.10;99.90;;;;;;5042323;28;20123;-90
2023/09/08 10:57:15;;;;;;;10.13;5.13;;;29.80;99.50;;;;;;5042702;28;20029;-90
2023/09/08 11:00:11;;;;;;;9.85;5.55;;;30.10;98.40;;;;;;5043257;28;20442;-90
2023/09/08 11:02:47;;;;;;;8.05;5.65;;;30.30;98.20;;;;;;5059480;28;20851;-91
2023/09/08 11:05:15;;;;;;;6.07;4.60;;;30.40;98.50;;;;;;5059025;28;20408;-90
2023/09/08 11:07:45;;;;;;;10.63;4.57;;;30.40;96.90;;;;;;5042640;28;20028;-90
2023/09/08 11:10:12;;;;;;;5.75;4.85;;;30.60;96.60;;;;;;5042739;28;20502;-90
2023/09/08 11:12:38;;;;;;;6.65;4.75;;;30.80;98.10;;;;;;5042537;28;20052;-90
2023/09/08 11:15:07;;;;;;;7.05;4.90;;;31.20;96.50;;;;;;5058850;28;20029;-91
2023/09/08 11:17:34;;;;;;;7.53;4.82;;;31.40;96.50;;;;;;5058537;28;20047;-90
2023/09/08 11:20:00;;;;;;;14.73;4.90;;;31.30;96.20;;;;;;5042124;28;20044;-90
2023/09/08 11:22:26;;;;;;;7.32;4.65;;;31.80;95.80;;;;;;5041473;28;20671;-89
2023/09/08 11:24:58;;;;;;;10.20;5.40;;;31.50;95.70;;;;;;5041681;28;20476;-90
2023/09/08 11:27:24;;;;;;;9.68;5.85;;;30.70;96.00;;;;;;5058534;28;20083;-92
2023/09/08 11:29:50;;;;;;;7.60;5.05;;;30.40;95.30;;;;;;5058454;28;20009;-89
2023/09/08 11:32:16;;;;;;;8.55;4.88;;;30.30;94.80;;;;;;5057791;28;20009;-90
2023/09/08 11:34:42;;;;;;;7.93;4.60;;;29.40;95.40;;;;;;5058376;28;20029;-90
2023/09/08 11:37:08;;;;;;;9.15;4.93;;;29.10;95.80;;;;;;5058143;28;20044;-91
2023/09/08 11:39:38;;;;;;;9.25;5.50;;;29.50;95.90;;;;;;5057957;28;20086;-90
2023/09/08 11:42:04;;;;;;;5.80;5.05;;;29.80;96.30;;;;;;5058135;28;20107;-90
2023/09/08 11:44:30;;;;;;;13.55;4.90;;;30.80;96.20;;;;;;5042256;28;20032;-89
2023/09/08 11:46:57;;;;;;;6.85;5.40;;;31.50;95.20;;;;;;5058923;28;20028;-90
2023/09/08 11:49:24;;;;;;;8.55;5.07;;;31.20;94.00;;;;;;5058842;28;20075;-91
2023/09/08 11:51:50;;;;;;;6.20;4.80;;;31.60;94.40;;;;;;5059097;28;20036;-90
2023/09/08 11:54:17;;;;;;;4.82;4.43;;;31.30;93.90;;;;;;5058183;28;20039;-90
2023/09/08 11:56:43;;;;;;;7.35;5.50;;;30.60;95.00;;;;;;5041799;28;20025;-90
2023/09/08 11:59:09;;;;;;;8.02;5.55;;;30.40;94.70;;;;;;5058104;28;20074;-88
2023/09/08 12:01:35;;;;;;;9.30;5.43;;;30.30;94.80;;;;;;5041686;28;20496;-90
2023/09/08 12:04:01;;;;;;;9.90;5.20;;;30.80;95.20;;;;;;5058416;28;20167;-91
2023/09/08 12:06:28;;;;;;;6.30;5.10;;;31.40;96.10;;;;;;5058996;28;20071;-90
2023/09/08 12:08:56;;;;;;;9.75;5.18;;;31.80;93.60;;;;;;5058734;28;20090;-89
2023/09/08 12:11:21;;;;;;;7.05;5.35;;;32.00;92.90;;;;;;5042370;28;20040;-89
2023/09/08 12:13:47;;;;;;;8.40;4.40;;;31.70;93.70;;;;;;5041919;28;20032;-90
2023/09/08 12:16:21;;;;;;;8.05;5.18;;;31.60;93.80;;;;;;5058944;28;20460;-91
2023/09/08 12:18:49;;;;;;;9.45;4.68;;;31.80;93.50;;;;;;5042116;28;20074;-89
2023/09/08 12:21:15;;;;;;;9.60;5.03;;;31.90;94.10;;;;;;5058099;28;20032;-89
2023/09/08 12:23:52;;;;;;;7.55;5.18;;;31.90;93.10;;;;;;5058719;28;20066;-90
2023/09/08 12:26:19;;;;;;;6.53;4.95;;;31.40;93.10;;;;;;5058074;28;20037;-88
2023/09/08 12:28:45;;;;;;;9.50;5.00;;;30.70;93.70;;;;;;5041726;28;20032;-89
2023/09/08 12:31:13;;;;;;;5.70;4.72;;;30.30;93.90;;;;;;5041184;28;20028;-89
2023/09/08 12:33:39;;;;;;;5.88;5.18;;;30.10;94.80;;;;;;5042663;28;20032;-90
2023/09/08 12:36:15;;;;;;;8.88;5.50;;;29.50;93.70;;;;;;5061767;28;20033;-90
2023/09/08 12:38:46;;;;;;;9.90;5.05;;;29.10;95.30;;;;;;5041470;28;20020;-90
2023/09/08 12:41:12;;;;;;;;;;;29.00;94.70;;;;;;5058621;28;20121;-89
2023/09/08 12:43:37;;;;;;;7.38;5.25;;;28.80;95.70;;;;;;5057487;28;19967;-87
2023/09/08 12:46:03;;;;;;;7.07;5.70;;;28.70;95.70;;;;;;5057698;28;20103;-89
2023/09/08 12:48:29;;;;;;;11.00;5.72;;;28.40;95.70;;;;;;5058227;28;20036;-90
2023/09/08 12:50:54;;;;;;;6.25;5.38;;;28.40;96.00;;;;;;5061448;28;20372;-90